Accueil
METAR-TAF:

METAR-TAF

Aéroports :

Aéroport de Venise-Marco-Polo

Venise, Italie

latitude: 45-30N, longitude: 012-20E, altitude: 2 m

Observation

Le bulletin a été fait il y a 35 minutes, à 00:20 UTC
Vent 9 kt de sud-est
Température 19°C
Humidité 64%
Pression 1025 hPa
Visibilité 10 km ou plus
pas de nuages en-dessous de 1500 mètres et pas de cumulonimbus.

METAR: LIPZ 260020Z 13009KT CAVOK 19/12 Q1025 NOSIG

Heure: 02:55 (00:55 UTC)

Prévision

Le bulletin a été fait il y a 1 heure et 55 minutes, à 23:00 UTC
Prévision valable du 26 à 00 UTC au 27 à 06 UTC
Vent 7 kt de nord-est
Visibilité 10 km ou plus
pas de nuages en-dessous de 1500 mètres et pas de cumulonimbus.
Evoluant progressivement
du 26 à 08 UTC au 26 à 10 UTC
Vent 10 kt de sud/sud-est
Evoluant progressivement
du 26 à 18 UTC au 26 à 20 UTC
Vent 7 kt de nord-est

TAF: LIPZ 252300Z 2600/2706 04007KT CAVOK BECMG 2608/2610 15010KT BECMG 2618/2620 04007KT

Observations et prévisions météorologiques de plus de 4000 aéroports (messages METAR et TAF).

Les stations disponibles sont représentées par des disques jaunes et rouges sur la carte.

Passer la souris dessus pour voir le nom de la station.

Cliquer dessus pour voir les observations et prévisions météorologiques.

Pour changer de carte: cliquez sur les boutons verts avec une croix noire pour zoomer, sur le bouton vert avec un tiret pour effectuer un zoom arrière, ou sur les flèches vertes pour les cartes adjacentes.


METAR-TAF: